Delta Virtual Airport Information Service

Missoula International Airport

ICAO: KMSO Country: United States
Latitude: 46.9163 Longitude: -114.09
Latest Arrival : DAL7263992 (KSLC-KMSO) Latest Departure : DAL7263992 (KMSO-KSLC)


WX CaptureLIVE
Data provided by noaa.gov | Fetched at 23:26:47

METAR : KMSO 080453Z AUTO 00000KT 10SM OVC070 03/M02 A3013 RMK AO2 SLP228 T00281022

TAF : KMSO 072336Z 0800/0824 29011KT P6SM VCSH FEW060 SCT080 OVC120 FM080600 31004KT P6SM OVC070 FM081500 36005KT P6SM VCSH BKN045 OVC060 FM081900 35006KT 5SM -SHRASN BKN025 OVC040


Runway Data for KMSO
Data provided by openaviationdata.com

Runway ID Mag Var Hdg Length Elevation Surface ILS Freq ILS Id ILS Slope
7 16 72° 4603 ft 3204 ft Asphalt -- -- --
11 16 113° 9487 ft 3204 ft Asphalt 109.3 IMSO 3
25 16 252° 4603 ft 3204 ft Asphalt -- -- --
29 16 293° 9487 ft 3204 ft Asphalt -- -- --

Missoula International Airport, United States
Use only for reference purposes



Not for navigational purposes.